sensor_id;sensor_type;location;lat;lon;timestamp;P1;durP1;ratioP1;P2;durP2;ratioP2
7031;SDS011;3557;48.880;8.328;2023-03-21T00:00:43;4.25;;;2.70;;
7031;SDS011;3557;48.880;8.328;2023-03-21T00:03:13;2.72;;;2.10;;
7031;SDS011;3557;48.880;8.328;2023-03-21T00:05:41;3.90;;;2.10;;
7031;SDS011;3557;48.880;8.328;2023-03-21T00:08:15;2.90;;;2.40;;
7031;SDS011;3557;48.880;8.328;2023-03-21T00:10:42;2.10;;;1.90;;
7031;SDS011;3557;48.880;8.328;2023-03-21T00:13:10;4.72;;;2.35;;
7031;SDS011;3557;48.880;8.328;2023-03-21T00:15:38;3.00;;;2.20;;
7031;SDS011;3557;48.880;8.328;2023-03-21T00:18:14;4.60;;;2.30;;
7031;SDS011;3557;48.880;8.328;2023-03-21T00:20:42;2.53;;;1.95;;
7031;SDS011;3557;48.880;8.328;2023-03-21T00:23:11;2.72;;;2.00;;
7031;SDS011;3557;48.880;8.328;2023-03-21T00:25:40;3.00;;;2.20;;
7031;SDS011;3557;48.880;8.328;2023-03-21T00:28:07;3.67;;;2.10;;
7031;SDS011;3557;48.880;8.328;2023-03-21T00:30:35;2.45;;;2.22;;
7031;SDS011;3557;48.880;8.328;2023-03-21T00:33:02;2.35;;;2.03;;
7031;SDS011;3557;48.880;8.328;2023-03-21T00:35:30;3.65;;;2.40;;
7031;SDS011;3557;48.880;8.328;2023-03-21T00:37:58;4.22;;;2.40;;
7031;SDS011;3557;48.880;8.328;2023-03-21T00:40:26;5.70;;;2.28;;
7031;SDS011;3557;48.880;8.328;2023-03-21T00:42:55;3.88;;;2.28;;
7031;SDS011;3557;48.880;8.328;2023-03-21T00:45:22;3.05;;;1.80;;
7031;SDS011;3557;48.880;8.328;2023-03-21T00:47:50;4.35;;;2.13;;
7031;SDS011;3557;48.880;8.328;2023-03-21T00:50:17;5.32;;;2.20;;
7031;SDS011;3557;48.880;8.328;2023-03-21T00:52:46;2.10;;;1.90;;
7031;SDS011;3557;48.880;8.328;2023-03-21T00:55:14;2.40;;;1.90;;
7031;SDS011;3557;48.880;8.328;2023-03-21T00:57:44;2.05;;;1.70;;
7031;SDS011;3557;48.880;8.328;2023-03-21T01:00:13;4.60;;;2.03;;
7031;SDS011;3557;48.880;8.328;2023-03-21T01:02:42;2.53;;;1.90;;
7031;SDS011;3557;48.880;8.328;2023-03-21T01:05:20;5.22;;;2.03;;
7031;SDS011;3557;48.880;8.328;2023-03-21T01:08:09;2.08;;;1.88;;
7031;SDS011;3557;48.880;8.328;2023-03-21T01:10:38;2.95;;;1.80;;
7031;SDS011;3557;48.880;8.328;2023-03-21T01:13:06;1.83;;;1.67;;
7031;SDS011;3557;48.880;8.328;2023-03-21T01:15:36;2.58;;;2.00;;
7031;SDS011;3557;48.880;8.328;2023-03-21T01:18:07;1.85;;;1.70;;
7031;SDS011;3557;48.880;8.328;2023-03-21T01:20:35;2.10;;;1.67;;
7031;SDS011;3557;48.880;8.328;2023-03-21T01:23:02;3.08;;;2.20;;
7031;SDS011;3557;48.880;8.328;2023-03-21T01:25:30;3.22;;;1.80;;
7031;SDS011;3557;48.880;8.328;2023-03-21T01:27:57;3.30;;;1.98;;
7031;SDS011;3557;48.880;8.328;2023-03-21T01:30:25;2.70;;;1.83;;
7031;SDS011;3557;48.880;8.328;2023-03-21T01:32:53;2.17;;;1.90;;
7031;SDS011;3557;48.880;8.328;2023-03-21T01:35:21;3.72;;;1.90;;
7031;SDS011;3557;48.880;8.328;2023-03-21T01:37:50;4.55;;;1.85;;
7031;SDS011;3557;48.880;8.328;2023-03-21T01:40:18;2.00;;;1.80;;
7031;SDS011;3557;48.880;8.328;2023-03-21T01:42:51;1.73;;;1.63;;
7031;SDS011;3557;48.880;8.328;2023-03-21T01:49:09;4.20;;;2.15;;
7031;SDS011;3557;48.880;8.328;2023-03-21T01:51:44;3.33;;;2.80;;
7031;SDS011;3557;48.880;8.328;2023-03-21T01:54:16;3.83;;;2.72;;
7031;SDS011;3557;48.880;8.328;2023-03-21T01:56:49;6.00;;;2.33;;
7031;SDS011;3557;48.880;8.328;2023-03-21T01:59:18;4.57;;;2.47;;
7031;SDS011;3557;48.880;8.328;2023-03-21T02:02:08;2.80;;;2.45;;
7031;SDS011;3557;48.880;8.328;2023-03-21T02:04:52;2.28;;;2.08;;
7031;SDS011;3557;48.880;8.328;2023-03-21T02:07:24;2.65;;;2.40;;
7031;SDS011;3557;48.880;8.328;2023-03-21T02:10:02;4.68;;;2.30;;
7031;SDS011;3557;48.880;8.328;2023-03-21T02:12:34;2.45;;;2.00;;
7031;SDS011;3557;48.880;8.328;2023-03-21T02:15:03;2.88;;;2.00;;
7031;SDS011;3557;48.880;8.328;2023-03-21T02:17:44;3.17;;;2.10;;
7031;SDS011;3557;48.880;8.328;2023-03-21T02:24:16;2.53;;;2.15;;
7031;SDS011;3557;48.880;8.328;2023-03-21T02:27:11;2.72;;;1.73;;
7031;SDS011;3557;48.880;8.328;2023-03-21T02:29:54;2.97;;;2.20;;
7031;SDS011;3557;48.880;8.328;2023-03-21T02:33:02;2.53;;;1.98;;
7031;SDS011;3557;48.880;8.328;2023-03-21T02:35:59;2.22;;;1.92;;
7031;SDS011;3557;48.880;8.328;2023-03-21T02:38:44;2.78;;;2.08;;
7031;SDS011;3557;48.880;8.328;2023-03-21T02:41:17;4.28;;;2.03;;
7031;SDS011;3557;48.880;8.328;2023-03-21T02:43:53;2.22;;;2.05;;
7031;SDS011;3557;48.880;8.328;2023-03-21T02:46:25;2.85;;;2.00;;
7031;SDS011;3557;48.880;8.328;2023-03-21T02:49:00;3.50;;;2.08;;
7031;SDS011;3557;48.880;8.328;2023-03-21T02:51:32;2.58;;;1.80;;
7031;SDS011;3557;48.880;8.328;2023-03-21T02:54:02;3.70;;;1.80;;
7031;SDS011;3557;48.880;8.328;2023-03-21T02:56:34;2.38;;;1.88;;
7031;SDS011;3557;48.880;8.328;2023-03-21T02:59:02;1.88;;;1.70;;
7031;SDS011;3557;48.880;8.328;2023-03-21T03:01:31;3.17;;;1.77;;
7031;SDS011;3557;48.880;8.328;2023-03-21T03:03:59;3.38;;;1.90;;
7031;SDS011;3557;48.880;8.328;2023-03-21T03:06:30;4.05;;;2.20;;
7031;SDS011;3557;48.880;8.328;2023-03-21T03:09:13;2.80;;;1.90;;
7031;SDS011;3557;48.880;8.328;2023-03-21T03:11:50;2.60;;;1.98;;
7031;SDS011;3557;48.880;8.328;2023-03-21T03:14:26;2.13;;;1.80;;
7031;SDS011;3557;48.880;8.328;2023-03-21T03:17:17;2.80;;;2.10;;
7031;SDS011;3557;48.880;8.328;2023-03-21T03:19:58;3.07;;;1.83;;
7031;SDS011;3557;48.880;8.328;2023-03-21T03:23:04;4.57;;;2.00;;
7031;SDS011;3557;48.880;8.328;2023-03-21T03:25:43;2.30;;;2.08;;
7031;SDS011;3557;48.880;8.328;2023-03-21T03:28:15;2.95;;;2.00;;
7031;SDS011;3557;48.880;8.328;2023-03-21T03:30:45;2.73;;;2.10;;
7031;SDS011;3557;48.880;8.328;2023-03-21T03:33:15;3.87;;;2.20;;
7031;SDS011;3557;48.880;8.328;2023-03-21T03:35:47;2.00;;;1.80;;
7031;SDS011;3557;48.880;8.328;2023-03-21T03:38:17;2.77;;;1.90;;
7031;SDS011;3557;48.880;8.328;2023-03-21T03:40:50;2.20;;;2.00;;
7031;SDS011;3557;48.880;8.328;2023-03-21T03:43:36;2.50;;;1.97;;
7031;SDS011;3557;48.880;8.328;2023-03-21T03:46:09;3.53;;;1.80;;
7031;SDS011;3557;48.880;8.328;2023-03-21T03:48:45;2.17;;;1.97;;
7031;SDS011;3557;48.880;8.328;2023-03-21T03:51:16;3.27;;;2.20;;
7031;SDS011;3557;48.880;8.328;2023-03-21T03:54:15;3.20;;;2.00;;
7031;SDS011;3557;48.880;8.328;2023-03-21T03:56:48;3.90;;;2.00;;
7031;SDS011;3557;48.880;8.328;2023-03-21T03:59:16;2.37;;;2.10;;
7031;SDS011;3557;48.880;8.328;2023-03-21T04:02:06;2.97;;;2.03;;
7031;SDS011;3557;48.880;8.328;2023-03-21T04:04:33;4.17;;;2.30;;
7031;SDS011;3557;48.880;8.328;2023-03-21T04:07:01;3.40;;;2.07;;
7031;SDS011;3557;48.880;8.328;2023-03-21T04:09:29;3.33;;;2.30;;
7031;SDS011;3557;48.880;8.328;2023-03-21T04:11:58;3.63;;;2.17;;
7031;SDS011;3557;48.880;8.328;2023-03-21T04:14:25;2.90;;;2.20;;
7031;SDS011;3557;48.880;8.328;2023-03-21T04:16:53;4.57;;;2.13;;
7031;SDS011;3557;48.880;8.328;2023-03-21T04:19:21;6.00;;;2.40;;
7031;SDS011;3557;48.880;8.328;2023-03-21T04:21:49;3.97;;;2.20;;
7031;SDS011;3557;48.880;8.328;2023-03-21T04:24:17;3.50;;;2.20;;
7031;SDS011;3557;48.880;8.328;2023-03-21T04:26:47;2.63;;;2.10;;
7031;SDS011;3557;48.880;8.328;2023-03-21T04:29:38;2.30;;;2.00;;
7031;SDS011;3557;48.880;8.328;2023-03-21T04:32:25;4.00;;;2.37;;
7031;SDS011;3557;48.880;8.328;2023-03-21T04:35:02;7.90;;;2.57;;
7031;SDS011;3557;48.880;8.328;2023-03-21T04:37:30;2.40;;;2.20;;
7031;SDS011;3557;48.880;8.328;2023-03-21T04:39:58;2.73;;;2.03;;
7031;SDS011;3557;48.880;8.328;2023-03-21T04:42:28;3.07;;;2.27;;
7031;SDS011;3557;48.880;8.328;2023-03-21T04:44:57;2.57;;;2.20;;
7031;SDS011;3557;48.880;8.328;2023-03-21T04:47:24;3.60;;;2.60;;
7031;SDS011;3557;48.880;8.328;2023-03-21T04:49:53;2.20;;;2.00;;
7031;SDS011;3557;48.880;8.328;2023-03-21T04:52:23;2.10;;;1.90;;
7031;SDS011;3557;48.880;8.328;2023-03-21T04:54:50;2.70;;;2.10;;
7031;SDS011;3557;48.880;8.328;2023-03-21T04:57:18;2.47;;;2.17;;
7031;SDS011;3557;48.880;8.328;2023-03-21T04:59:45;3.40;;;2.50;;
7031;SDS011;3557;48.880;8.328;2023-03-21T05:02:15;3.37;;;2.57;;
7031;SDS011;3557;48.880;8.328;2023-03-21T05:04:42;2.60;;;2.20;;
7031;SDS011;3557;48.880;8.328;2023-03-21T05:07:09;2.27;;;2.07;;
7031;SDS011;3557;48.880;8.328;2023-03-21T05:09:37;2.30;;;2.10;;
7031;SDS011;3557;48.880;8.328;2023-03-21T05:12:05;2.43;;;2.23;;
7031;SDS011;3557;48.880;8.328;2023-03-21T05:14:34;2.67;;;2.20;;
7031;SDS011;3557;48.880;8.328;2023-03-21T05:17:03;6.43;;;2.37;;
7031;SDS011;3557;48.880;8.328;2023-03-21T05:19:32;3.53;;;2.30;;
7031;SDS011;3557;48.880;8.328;2023-03-21T05:22:02;2.33;;;2.13;;
7031;SDS011;3557;48.880;8.328;2023-03-21T05:24:31;3.63;;;2.30;;
7031;SDS011;3557;48.880;8.328;2023-03-21T05:27:01;2.80;;;2.43;;
7031;SDS011;3557;48.880;8.328;2023-03-21T05:29:37;2.80;;;2.60;;
7031;SDS011;3557;48.880;8.328;2023-03-21T05:32:06;3.57;;;2.30;;
7031;SDS011;3557;48.880;8.328;2023-03-21T05:34:34;4.40;;;2.73;;
7031;SDS011;3557;48.880;8.328;2023-03-21T05:37:02;4.30;;;2.70;;
7031;SDS011;3557;48.880;8.328;2023-03-21T05:39:56;2.33;;;2.13;;
7031;SDS011;3557;48.880;8.328;2023-03-21T05:42:31;2.70;;;2.40;;
7031;SDS011;3557;48.880;8.328;2023-03-21T05:45:07;2.70;;;2.00;;
7031;SDS011;3557;48.880;8.328;2023-03-21T05:47:36;5.93;;;2.30;;
7031;SDS011;3557;48.880;8.328;2023-03-21T05:50:06;3.87;;;2.50;;
7031;SDS011;3557;48.880;8.328;2023-03-21T05:52:35;5.67;;;2.27;;
7031;SDS011;3557;48.880;8.328;2023-03-21T05:55:10;3.77;;;2.30;;
7031;SDS011;3557;48.880;8.328;2023-03-21T05:57:37;5.07;;;3.77;;
7031;SDS011;3557;48.880;8.328;2023-03-21T06:00:25;5.33;;;3.03;;
7031;SDS011;3557;48.880;8.328;2023-03-21T06:03:10;4.97;;;4.00;;
7031;SDS011;3557;48.880;8.328;2023-03-21T06:05:58;4.40;;;3.53;;
7031;SDS011;3557;48.880;8.328;2023-03-21T06:08:32;4.70;;;3.80;;
7031;SDS011;3557;48.880;8.328;2023-03-21T06:11:00;9.40;;;4.33;;
7031;SDS011;3557;48.880;8.328;2023-03-21T06:13:30;4.40;;;3.53;;
7031;SDS011;3557;48.880;8.328;2023-03-21T06:15:58;5.40;;;4.13;;
7031;SDS011;3557;48.880;8.328;2023-03-21T06:18:25;6.83;;;4.10;;
7031;SDS011;3557;48.880;8.328;2023-03-21T06:21:14;4.57;;;3.90;;
7031;SDS011;3557;48.880;8.328;2023-03-21T06:23:43;6.03;;;3.90;;
7031;SDS011;3557;48.880;8.328;2023-03-21T06:26:11;4.80;;;3.50;;
7031;SDS011;3557;48.880;8.328;2023-03-21T06:28:39;6.67;;;4.27;;
7031;SDS011;3557;48.880;8.328;2023-03-21T06:31:07;8.07;;;4.47;;
7031;SDS011;3557;48.880;8.328;2023-03-21T06:33:34;5.87;;;4.20;;
7031;SDS011;3557;48.880;8.328;2023-03-21T06:36:02;17.50;;;9.70;;
7031;SDS011;3557;48.880;8.328;2023-03-21T06:38:31;6.28;;;4.13;;
7031;SDS011;3557;48.880;8.328;2023-03-21T06:41:02;6.50;;;4.25;;
7031;SDS011;3557;48.880;8.328;2023-03-21T06:43:37;6.97;;;3.63;;
7031;SDS011;3557;48.880;8.328;2023-03-21T06:46:06;5.20;;;3.30;;
7031;SDS011;3557;48.880;8.328;2023-03-21T06:48:34;4.03;;;3.08;;
7031;SDS011;3557;48.880;8.328;2023-03-21T06:51:03;4.25;;;3.08;;
7031;SDS011;3557;48.880;8.328;2023-03-21T06:53:34;4.68;;;3.10;;
7031;SDS011;3557;48.880;8.328;2023-03-21T06:56:32;6.25;;;3.65;;
7031;SDS011;3557;48.880;8.328;2023-03-21T06:59:02;10.40;;;3.35;;
7031;SDS011;3557;48.880;8.328;2023-03-21T07:01:56;4.70;;;2.95;;
7031;SDS011;3557;48.880;8.328;2023-03-21T07:04:24;5.68;;;3.03;;
7031;SDS011;3557;48.880;8.328;2023-03-21T07:06:53;3.63;;;2.42;;
7031;SDS011;3557;48.880;8.328;2023-03-21T07:09:22;4.00;;;2.30;;
7031;SDS011;3557;48.880;8.328;2023-03-21T07:11:54;2.42;;;2.00;;
7031;SDS011;3557;48.880;8.328;2023-03-21T07:14:27;6.25;;;2.20;;
7031;SDS011;3557;48.880;8.328;2023-03-21T07:16:56;2.65;;;2.15;;
7031;SDS011;3557;48.880;8.328;2023-03-21T07:19:23;3.58;;;2.10;;
7031;SDS011;3557;48.880;8.328;2023-03-21T07:21:51;6.28;;;3.40;;
7031;SDS011;3557;48.880;8.328;2023-03-21T07:24:19;5.70;;;2.58;;
7031;SDS011;3557;48.880;8.328;2023-03-21T07:26:47;7.20;;;3.80;;
7031;SDS011;3557;48.880;8.328;2023-03-21T07:29:15;10.18;;;5.10;;
7031;SDS011;3557;48.880;8.328;2023-03-21T07:31:45;9.65;;;4.93;;
7031;SDS011;3557;48.880;8.328;2023-03-21T07:34:13;9.05;;;4.93;;
7031;SDS011;3557;48.880;8.328;2023-03-21T07:36:41;6.03;;;2.60;;
7031;SDS011;3557;48.880;8.328;2023-03-21T07:39:09;7.75;;;3.10;;
7031;SDS011;3557;48.880;8.328;2023-03-21T07:41:36;3.85;;;2.85;;
7031;SDS011;3557;48.880;8.328;2023-03-21T07:44:23;5.78;;;3.28;;
7031;SDS011;3557;48.880;8.328;2023-03-21T07:47:00;4.07;;;3.15;;
7031;SDS011;3557;48.880;8.328;2023-03-21T07:49:28;4.28;;;2.20;;
7031;SDS011;3557;48.880;8.328;2023-03-21T07:51:55;3.63;;;2.00;;
7031;SDS011;3557;48.880;8.328;2023-03-21T07:54:23;3.63;;;2.17;;
7031;SDS011;3557;48.880;8.328;2023-03-21T07:56:52;3.15;;;2.10;;
7031;SDS011;3557;48.880;8.328;2023-03-21T07:59:20;8.10;;;1.90;;
7031;SDS011;3557;48.880;8.328;2023-03-21T08:01:49;1.60;;;1.50;;
7031;SDS011;3557;48.880;8.328;2023-03-21T08:04:16;2.10;;;1.90;;
7031;SDS011;3557;48.880;8.328;2023-03-21T08:06:44;3.17;;;1.90;;
7031;SDS011;3557;48.880;8.328;2023-03-21T08:09:11;1.65;;;1.55;;
7031;SDS011;3557;48.880;8.328;2023-03-21T08:11:38;2.25;;;1.88;;
7031;SDS011;3557;48.880;8.328;2023-03-21T08:14:06;1.67;;;1.58;;
7031;SDS011;3557;48.880;8.328;2023-03-21T08:16:33;2.42;;;1.65;;
7031;SDS011;3557;48.880;8.328;2023-03-21T08:19:02;2.85;;;1.92;;
7031;SDS011;3557;48.880;8.328;2023-03-21T08:21:30;5.88;;;1.85;;
7031;SDS011;3557;48.880;8.328;2023-03-21T08:23:57;2.78;;;1.90;;
7031;SDS011;3557;48.880;8.328;2023-03-21T08:26:24;2.67;;;1.90;;
7031;SDS011;3557;48.880;8.328;2023-03-21T08:28:52;3.13;;;1.77;;
7031;SDS011;3557;48.880;8.328;2023-03-21T08:31:19;3.53;;;2.47;;
7031;SDS011;3557;48.880;8.328;2023-03-21T08:33:47;2.92;;;1.95;;
7031;SDS011;3557;48.880;8.328;2023-03-21T08:36:19;2.13;;;1.90;;
7031;SDS011;3557;48.880;8.328;2023-03-21T08:38:47;3.90;;;1.90;;
7031;SDS011;3557;48.880;8.328;2023-03-21T08:41:18;5.30;;;2.20;;
7031;SDS011;3557;48.880;8.328;2023-03-21T08:43:46;2.40;;;1.90;;
7031;SDS011;3557;48.880;8.328;2023-03-21T08:46:13;2.55;;;1.90;;
7031;SDS011;3557;48.880;8.328;2023-03-21T08:48:41;2.35;;;1.90;;
7031;SDS011;3557;48.880;8.328;2023-03-21T08:51:08;3.20;;;2.25;;
7031;SDS011;3557;48.880;8.328;2023-03-21T08:53:37;5.60;;;1.90;;
7031;SDS011;3557;48.880;8.328;2023-03-21T08:56:06;3.30;;;2.17;;
7031;SDS011;3557;48.880;8.328;2023-03-21T08:58:35;3.25;;;2.00;;
7031;SDS011;3557;48.880;8.328;2023-03-21T09:01:03;2.47;;;2.10;;
7031;SDS011;3557;48.880;8.328;2023-03-21T09:03:35;2.92;;;2.10;;
7031;SDS011;3557;48.880;8.328;2023-03-21T09:06:03;2.30;;;1.80;;
7031;SDS011;3557;48.880;8.328;2023-03-21T09:08:30;6.82;;;2.20;;
7031;SDS011;3557;48.880;8.328;2023-03-21T09:10:59;5.78;;;1.95;;
7031;SDS011;3557;48.880;8.328;2023-03-21T09:13:26;4.18;;;2.20;;
7031;SDS011;3557;48.880;8.328;2023-03-21T09:15:54;2.72;;;2.17;;
7031;SDS011;3557;48.880;8.328;2023-03-21T09:18:25;4.00;;;2.40;;
7031;SDS011;3557;48.880;8.328;2023-03-21T09:21:09;3.05;;;2.15;;
7031;SDS011;3557;48.880;8.328;2023-03-21T09:23:40;5.03;;;2.30;;
7031;SDS011;3557;48.880;8.328;2023-03-21T09:26:10;3.33;;;2.10;;
7031;SDS011;3557;48.880;8.328;2023-03-21T09:28:38;6.47;;;2.20;;
7031;SDS011;3557;48.880;8.328;2023-03-21T09:31:05;5.55;;;2.30;;
7031;SDS011;3557;48.880;8.328;2023-03-21T09:33:36;3.20;;;2.38;;
7031;SDS011;3557;48.880;8.328;2023-03-21T09:36:05;5.35;;;2.22;;
7031;SDS011;3557;48.880;8.328;2023-03-21T09:38:38;4.18;;;2.30;;
7031;SDS011;3557;48.880;8.328;2023-03-21T09:41:14;4.85;;;2.22;;
7031;SDS011;3557;48.880;8.328;2023-03-21T09:43:55;3.97;;;2.28;;
7031;SDS011;3557;48.880;8.328;2023-03-21T09:46:38;3.50;;;2.30;;
7031;SDS011;3557;48.880;8.328;2023-03-21T09:49:10;4.20;;;2.67;;
7031;SDS011;3557;48.880;8.328;2023-03-21T09:51:42;4.97;;;2.60;;
7031;SDS011;3557;48.880;8.328;2023-03-21T09:54:16;3.65;;;2.40;;
7031;SDS011;3557;48.880;8.328;2023-03-21T09:56:48;3.63;;;2.45;;
7031;SDS011;3557;48.880;8.328;2023-03-21T09:59:20;7.47;;;2.53;;
7031;SDS011;3557;48.880;8.328;2023-03-21T10:01:50;3.45;;;2.63;;
7031;SDS011;3557;48.880;8.328;2023-03-21T10:04:19;3.75;;;2.20;;
7031;SDS011;3557;48.880;8.328;2023-03-21T10:06:51;5.30;;;2.38;;
7031;SDS011;3557;48.880;8.328;2023-03-21T10:09:23;4.70;;;2.70;;
7031;SDS011;3557;48.880;8.328;2023-03-21T10:11:54;3.33;;;2.78;;
7031;SDS011;3557;48.880;8.328;2023-03-21T10:14:24;5.13;;;2.95;;
7031;SDS011;3557;48.880;8.328;2023-03-21T10:16:56;4.05;;;2.78;;
7031;SDS011;3557;48.880;8.328;2023-03-21T10:19:26;3.60;;;2.70;;
7031;SDS011;3557;48.880;8.328;2023-03-21T10:21:55;4.22;;;3.10;;
7031;SDS011;3557;48.880;8.328;2023-03-21T10:24:23;6.15;;;3.20;;
7031;SDS011;3557;48.880;8.328;2023-03-21T10:26:53;4.30;;;2.90;;
7031;SDS011;3557;48.880;8.328;2023-03-21T10:29:22;5.43;;;2.80;;
7031;SDS011;3557;48.880;8.328;2023-03-21T10:31:53;4.00;;;2.72;;
7031;SDS011;3557;48.880;8.328;2023-03-21T10:34:23;3.58;;;2.58;;
7031;SDS011;3557;48.880;8.328;2023-03-21T10:36:56;3.38;;;2.60;;
7031;SDS011;3557;48.880;8.328;2023-03-21T10:39:25;5.85;;;2.50;;
7031;SDS011;3557;48.880;8.328;2023-03-21T10:41:56;5.53;;;2.88;;
7031;SDS011;3557;48.880;8.328;2023-03-21T10:44:27;4.20;;;2.80;;
7031;SDS011;3557;48.880;8.328;2023-03-21T10:46:57;5.65;;;2.42;;
7031;SDS011;3557;48.880;8.328;2023-03-21T10:49:28;5.95;;;2.70;;
7031;SDS011;3557;48.880;8.328;2023-03-21T10:51:56;7.05;;;2.30;;
7031;SDS011;3557;48.880;8.328;2023-03-21T10:54:27;4.82;;;2.30;;
7031;SDS011;3557;48.880;8.328;2023-03-21T10:56:59;4.10;;;2.58;;
7031;SDS011;3557;48.880;8.328;2023-03-21T10:59:33;4.43;;;2.83;;
7031;SDS011;3557;48.880;8.328;2023-03-21T11:02:04;4.00;;;2.70;;
7031;SDS011;3557;48.880;8.328;2023-03-21T11:04:32;4.57;;;2.50;;
7031;SDS011;3557;48.880;8.328;2023-03-21T11:07:02;5.43;;;2.50;;
7031;SDS011;3557;48.880;8.328;2023-03-21T11:09:42;5.80;;;2.40;;
7031;SDS011;3557;48.880;8.328;2023-03-21T11:12:14;6.55;;;2.70;;
7031;SDS011;3557;48.880;8.328;2023-03-21T11:14:43;2.80;;;2.50;;
7031;SDS011;3557;48.880;8.328;2023-03-21T11:17:19;2.78;;;2.30;;
7031;SDS011;3557;48.880;8.328;2023-03-21T11:19:48;3.00;;;2.28;;
7031;SDS011;3557;48.880;8.328;2023-03-21T11:22:18;3.30;;;2.50;;
7031;SDS011;3557;48.880;8.328;2023-03-21T11:24:51;3.55;;;2.25;;
7031;SDS011;3557;48.880;8.328;2023-03-21T11:27:23;4.13;;;2.20;;
7031;SDS011;3557;48.880;8.328;2023-03-21T11:29:53;3.65;;;2.75;;
7031;SDS011;3557;48.880;8.328;2023-03-21T11:32:24;3.17;;;2.30;;
7031;SDS011;3557;48.880;8.328;2023-03-21T11:34:56;3.58;;;2.20;;
7031;SDS011;3557;48.880;8.328;2023-03-21T11:37:25;4.18;;;2.33;;
7031;SDS011;3557;48.880;8.328;2023-03-21T11:40:04;3.13;;;2.50;;
7031;SDS011;3557;48.880;8.328;2023-03-21T11:42:45;3.50;;;2.33;;
7031;SDS011;3557;48.880;8.328;2023-03-21T11:45:16;4.22;;;2.40;;
7031;SDS011;3557;48.880;8.328;2023-03-21T11:47:48;3.88;;;2.08;;
7031;SDS011;3557;48.880;8.328;2023-03-21T11:50:18;2.30;;;2.10;;
7031;SDS011;3557;48.880;8.328;2023-03-21T11:52:55;2.50;;;2.28;;
7031;SDS011;3557;48.880;8.328;2023-03-21T11:55:35;2.78;;;2.10;;
7031;SDS011;3557;48.880;8.328;2023-03-21T11:58:19;4.43;;;2.28;;
7031;SDS011;3557;48.880;8.328;2023-03-21T12:01:01;2.25;;;2.05;;
7031;SDS011;3557;48.880;8.328;2023-03-21T12:03:39;3.53;;;2.30;;
7031;SDS011;3557;48.880;8.328;2023-03-21T12:06:23;2.33;;;1.80;;
7031;SDS011;3557;48.880;8.328;2023-03-21T12:08:58;2.10;;;1.90;;
7031;SDS011;3557;48.880;8.328;2023-03-21T12:11:41;3.65;;;1.88;;
7031;SDS011;3557;48.880;8.328;2023-03-21T12:14:20;1.77;;;1.67;;
7031;SDS011;3557;48.880;8.328;2023-03-21T12:16:55;2.63;;;1.70;;
7031;SDS011;3557;48.880;8.328;2023-03-21T12:19:45;2.75;;;1.77;;
7031;SDS011;3557;48.880;8.328;2023-03-21T12:22:24;2.63;;;1.65;;
7031;SDS011;3557;48.880;8.328;2023-03-21T12:24:57;2.53;;;1.73;;
7031;SDS011;3557;48.880;8.328;2023-03-21T12:27:34;2.10;;;1.75;;
7031;SDS011;3557;48.880;8.328;2023-03-21T12:30:15;2.92;;;1.92;;
7031;SDS011;3557;48.880;8.328;2023-03-21T12:33:02;2.15;;;1.60;;
7031;SDS011;3557;48.880;8.328;2023-03-21T12:35:52;2.92;;;2.22;;
7031;SDS011;3557;48.880;8.328;2023-03-21T12:38:31;4.28;;;1.70;;
7031;SDS011;3557;48.880;8.328;2023-03-21T12:41:09;2.25;;;1.70;;
7031;SDS011;3557;48.880;8.328;2023-03-21T12:43:46;2.42;;;1.50;;
7031;SDS011;3557;48.880;8.328;2023-03-21T12:46:20;4.47;;;1.70;;
7031;SDS011;3557;48.880;8.328;2023-03-21T12:48:50;1.77;;;1.60;;
7031;SDS011;3557;48.880;8.328;2023-03-21T12:51:22;2.50;;;1.60;;
7031;SDS011;3557;48.880;8.328;2023-03-21T12:53:58;2.45;;;1.80;;
7031;SDS011;3557;48.880;8.328;2023-03-21T12:56:32;2.03;;;1.60;;
7031;SDS011;3557;48.880;8.328;2023-03-21T12:59:07;5.80;;;1.80;;
7031;SDS011;3557;48.880;8.328;2023-03-21T13:01:45;4.57;;;1.50;;
7031;SDS011;3557;48.880;8.328;2023-03-21T13:04:35;2.75;;;1.58;;
7031;SDS011;3557;48.880;8.328;2023-03-21T13:07:08;1.77;;;1.48;;
7031;SDS011;3557;48.880;8.328;2023-03-21T13:09:39;4.47;;;1.60;;
7031;SDS011;3557;48.880;8.328;2023-03-21T13:12:15;1.70;;;1.60;;
7031;SDS011;3557;48.880;8.328;2023-03-21T13:15:02;1.60;;;1.50;;
7031;SDS011;3557;48.880;8.328;2023-03-21T13:17:55;4.43;;;1.50;;
7031;SDS011;3557;48.880;8.328;2023-03-21T13:20:31;4.22;;;2.40;;
7031;SDS011;3557;48.880;8.328;2023-03-21T13:23:03;2.40;;;1.63;;
7031;SDS011;3557;48.880;8.328;2023-03-21T13:25:32;2.42;;;1.50;;
7031;SDS011;3557;48.880;8.328;2023-03-21T13:28:11;2.95;;;1.70;;
7031;SDS011;3557;48.880;8.328;2023-03-21T13:30:45;2.90;;;1.90;;
7031;SDS011;3557;48.880;8.328;2023-03-21T13:33:15;1.58;;;1.48;;
7031;SDS011;3557;48.880;8.328;2023-03-21T13:35:58;4.32;;;2.40;;
7031;SDS011;3557;48.880;8.328;2023-03-21T13:38:29;2.75;;;2.50;;
7031;SDS011;3557;48.880;8.328;2023-03-21T13:40:58;1.50;;;1.40;;
7031;SDS011;3557;48.880;8.328;2023-03-21T13:43:30;1.75;;;1.65;;
7031;SDS011;3557;48.880;8.328;2023-03-21T13:46:04;2.10;;;1.58;;
7031;SDS011;3557;48.880;8.328;2023-03-21T13:48:43;2.67;;;1.60;;
7031;SDS011;3557;48.880;8.328;2023-03-21T13:51:40;2.50;;;1.65;;
7031;SDS011;3557;48.880;8.328;2023-03-21T13:54:21;3.58;;;2.00;;
7031;SDS011;3557;48.880;8.328;2023-03-21T13:56:55;4.57;;;2.00;;
7031;SDS011;3557;48.880;8.328;2023-03-21T13:59:38;2.67;;;2.10;;
7031;SDS011;3557;48.880;8.328;2023-03-21T14:04:57;2.17;;;1.90;;
7031;SDS011;3557;48.880;8.328;2023-03-21T14:07:27;2.55;;;1.92;;
7031;SDS011;3557;48.880;8.328;2023-03-21T14:09:57;2.45;;;2.20;;
7031;SDS011;3557;48.880;8.328;2023-03-21T14:12:28;1.92;;;1.60;;
7031;SDS011;3557;48.880;8.328;2023-03-21T14:15:05;2.50;;;1.90;;
7031;SDS011;3557;48.880;8.328;2023-03-21T14:17:38;4.68;;;2.00;;
7031;SDS011;3557;48.880;8.328;2023-03-21T14:20:17;2.00;;;1.73;;
7031;SDS011;3557;48.880;8.328;2023-03-21T14:22:47;1.90;;;1.70;;
7031;SDS011;3557;48.880;8.328;2023-03-21T14:25:16;2.72;;;1.80;;
7031;SDS011;3557;48.880;8.328;2023-03-21T14:27:46;3.15;;;1.67;;
7031;SDS011;3557;48.880;8.328;2023-03-21T14:30:20;2.30;;;1.98;;
7031;SDS011;3557;48.880;8.328;2023-03-21T14:32:52;3.63;;;1.73;;
7031;SDS011;3557;48.880;8.328;2023-03-21T14:35:22;2.00;;;1.73;;
7031;SDS011;3557;48.880;8.328;2023-03-21T14:37:55;2.30;;;2.00;;
7031;SDS011;3557;48.880;8.328;2023-03-21T14:40:27;2.78;;;1.85;;
7031;SDS011;3557;48.880;8.328;2023-03-21T14:42:55;2.47;;;1.90;;
7031;SDS011;3557;48.880;8.328;2023-03-21T14:45:25;2.55;;;2.10;;
7031;SDS011;3557;48.880;8.328;2023-03-21T14:47:55;3.30;;;2.10;;
7031;SDS011;3557;48.880;8.328;2023-03-21T14:50:29;2.40;;;2.10;;
7031;SDS011;3557;48.880;8.328;2023-03-21T14:53:02;3.67;;;1.98;;
7031;SDS011;3557;48.880;8.328;2023-03-21T14:55:30;2.83;;;1.85;;
7031;SDS011;3557;48.880;8.328;2023-03-21T14:57:57;4.22;;;2.10;;
7031;SDS011;3557;48.880;8.328;2023-03-21T15:00:26;2.30;;;1.80;;
7031;SDS011;3557;48.880;8.328;2023-03-21T15:02:56;2.10;;;1.70;;
7031;SDS011;3557;48.880;8.328;2023-03-21T15:05:24;6.72;;;2.00;;
7031;SDS011;3557;48.880;8.328;2023-03-21T15:07:56;2.10;;;1.80;;
7031;SDS011;3557;48.880;8.328;2023-03-21T15:10:26;3.67;;;2.13;;
7031;SDS011;3557;48.880;8.328;2023-03-21T15:12:57;2.10;;;1.80;;
7031;SDS011;3557;48.880;8.328;2023-03-21T15:15:27;4.53;;;1.90;;
7031;SDS011;3557;48.880;8.328;2023-03-21T15:17:55;3.55;;;1.70;;
7031;SDS011;3557;48.880;8.328;2023-03-21T15:20:31;2.55;;;1.40;;
7031;SDS011;3557;48.880;8.328;2023-03-21T15:23:01;2.17;;;1.60;;
7031;SDS011;3557;48.880;8.328;2023-03-21T15:25:33;1.98;;;1.80;;
7031;SDS011;3557;48.880;8.328;2023-03-21T15:28:01;4.45;;;1.90;;
7031;SDS011;3557;48.880;8.328;2023-03-21T15:30:30;3.03;;;1.67;;
7031;SDS011;3557;48.880;8.328;2023-03-21T15:33:04;1.65;;;1.55;;
7031;SDS011;3557;48.880;8.328;2023-03-21T15:35:35;3.80;;;1.75;;
7031;SDS011;3557;48.880;8.328;2023-03-21T15:38:04;1.80;;;1.70;;
7031;SDS011;3557;48.880;8.328;2023-03-21T15:40:33;2.10;;;1.67;;
7031;SDS011;3557;48.880;8.328;2023-03-21T15:43:04;2.20;;;1.65;;
7031;SDS011;3557;48.880;8.328;2023-03-21T15:45:44;4.47;;;2.33;;
7031;SDS011;3557;48.880;8.328;2023-03-21T15:48:13;7.85;;;5.30;;
7031;SDS011;3557;48.880;8.328;2023-03-21T15:50:42;2.92;;;2.30;;
7031;SDS011;3557;48.880;8.328;2023-03-21T15:53:23;4.57;;;1.85;;
7031;SDS011;3557;48.880;8.328;2023-03-21T15:55:51;3.00;;;1.80;;
7031;SDS011;3557;48.880;8.328;2023-03-21T15:58:26;2.33;;;1.65;;